createdAt,value
2022-09-01T00:00:09.478Z,102264.09
2022-09-01T00:02:37.114Z,102268.44
2022-09-01T00:05:04.762Z,102264.91
2022-09-01T00:07:31.937Z,102272.75
2022-09-01T00:10:07.162Z,102266.63
2022-09-01T00:12:34.561Z,102279.72
2022-09-01T00:15:01.564Z,102273.59
2022-09-01T00:17:28.528Z,102266.56
2022-09-01T00:19:55.527Z,102265.63
2022-09-01T00:22:22.443Z,102263.00
2022-09-01T00:24:49.443Z,102258.59
2022-09-01T00:27:16.734Z,102266.44
2022-09-01T00:29:44.854Z,102261.16
2022-09-01T00:32:12.405Z,102263.72
2022-09-01T00:34:39.987Z,102264.59
2022-09-01T00:37:07.830Z,102268.94
2022-09-01T00:39:34.977Z,102265.41
2022-09-01T00:42:02.144Z,102267.13
2022-09-01T00:44:31.138Z,102264.47
2022-09-01T00:46:59.788Z,102263.56
2022-09-01T00:49:37.082Z,102265.28
2022-09-01T00:52:21.708Z,102265.28
2022-09-01T00:54:54.923Z,102264.34
2022-09-01T00:57:22.632Z,102266.91
2022-09-01T00:59:58.597Z,102261.63
2022-09-01T01:02:26.470Z,102265.97
2022-09-01T01:04:56.105Z,102261.56
2022-09-01T01:07:24.134Z,102265.94
2022-09-01T01:09:51.795Z,102261.53
2022-09-01T01:12:19.053Z,102256.25
2022-09-01T01:14:50.189Z,102259.72
2022-09-01T01:17:20.878Z,102258.84
2022-09-01T01:20:10.953Z,102257.94
2022-09-01T01:23:03.794Z,102247.38
2022-09-01T01:25:46.369Z,102249.09
2022-09-01T01:28:37.113Z,102250.75
2022-09-01T01:31:12.671Z,102245.50
2022-09-01T01:33:55.571Z,102249.84
2022-09-01T01:36:35.850Z,102241.09
2022-09-01T01:39:15.103Z,102251.50
2022-09-01T01:41:48.669Z,102257.63
2022-09-01T01:44:20.117Z,102254.09
2022-09-01T01:46:51.415Z,102253.19
2022-09-01T01:49:22.739Z,102244.44
2022-09-01T01:51:55.988Z,102254.03
2022-09-01T01:54:31.300Z,102247.00
2022-09-01T01:57:04.254Z,102251.34
2022-09-01T01:59:33.413Z,102247.84
2022-09-01T02:02:03.874Z,102259.16
2022-09-01T02:04:33.935Z,102245.16
2022-09-01T02:07:13.601Z,102243.34
2022-09-01T02:09:44.124Z,102231.13
2022-09-01T02:12:11.090Z,102230.19
2022-09-01T02:14:43.773Z,102231.84
2022-09-01T02:17:10.733Z,102235.41
2022-09-01T02:19:40.549Z,102241.47
2022-09-01T02:22:11.021Z,102235.38
2022-09-01T02:24:38.521Z,102240.53
2022-09-01T02:27:06.364Z,102240.53
2022-09-01T02:29:35.117Z,102243.16
2022-09-01T02:32:07.898Z,102236.13
2022-09-01T02:34:35.079Z,102233.50
2022-09-01T02:37:01.997Z,102234.34
2022-09-01T02:39:34.490Z,102231.69
2022-09-01T02:42:01.930Z,102228.16
2022-09-01T02:44:31.033Z,102223.78
2022-09-01T02:46:59.275Z,102217.66
2022-09-01T02:49:29.998Z,102217.63
2022-09-01T02:52:01.213Z,102218.44
2022-09-01T02:54:31.937Z,102218.41
2022-09-01T02:56:59.513Z,102218.38
2022-09-01T02:59:30.416Z,102216.59
2022-09-01T03:02:00.079Z,102218.31
2022-09-01T03:04:27.280Z,102221.78
2022-09-01T03:06:54.960Z,102226.09
2022-09-01T03:09:23.087Z,102220.75
2022-09-01T03:11:52.803Z,102226.03
2022-09-01T03:14:21.555Z,102226.84
2022-09-01T03:16:48.742Z,102225.94
2022-09-01T03:19:16.671Z,102232.88
2022-09-01T03:21:46.412Z,102238.09
2022-09-01T03:24:18.681Z,102231.09
2022-09-01T03:26:50.377Z,102236.25
2022-09-01T03:29:19.537Z,102228.41
2022-09-01T03:31:46.911Z,102228.38
2022-09-01T03:34:19.240Z,102219.66
2022-09-01T03:36:50.875Z,102225.72
2022-09-01T03:39:24.769Z,102224.78
2022-09-01T03:41:51.788Z,102232.66
2022-09-01T03:44:19.871Z,102233.50
2022-09-01T03:46:47.566Z,102235.19
2022-09-01T03:49:15.624Z,102232.53
2022-09-01T03:51:45.041Z,102227.31
2022-09-01T03:54:12.727Z,102228.94
2022-09-01T03:56:41.691Z,102241.09
2022-09-01T03:59:17.099Z,102233.25
2022-09-01T04:01:46.764Z,102238.44
2022-09-01T04:04:15.097Z,102234.91
2022-09-01T04:06:44.408Z,102238.38
2022-09-01T04:09:12.215Z,102235.75
2022-09-01T04:11:46.068Z,102235.72
2022-09-01T04:14:15.376Z,102238.34
2022-09-01T04:17:02.741Z,102236.53
2022-09-01T04:19:30.610Z,102238.28
2022-09-01T04:22:00.933Z,102232.13
2022-09-01T04:24:35.747Z,102241.69
2022-09-01T04:27:03.671Z,102240.81
2022-09-01T04:29:32.877Z,102237.28
2022-09-01T04:32:09.768Z,102239.03
2022-09-01T04:34:40.331Z,102238.13
2022-09-01T04:37:13.152Z,102238.06
2022-09-01T04:39:51.301Z,102246.88
2022-09-01T04:42:24.193Z,102236.28
2022-09-01T04:44:53.903Z,102238.97
2022-09-01T04:47:31.579Z,102230.16
2022-09-01T04:50:13.880Z,102232.81
2022-09-01T04:52:45.733Z,102239.84
2022-09-01T04:55:26.556Z,102234.63
2022-09-01T04:57:54.821Z,102231.19
2022-09-01T05:00:23.425Z,102235.53
2022-09-01T05:03:03.339Z,102231.19
2022-09-01T05:05:45.496Z,102229.44
2022-09-01T05:08:23.145Z,102227.69
2022-09-01T05:10:53.684Z,102225.94
2022-09-01T05:13:32.859Z,102219.88
2022-09-01T05:16:12.908Z,102218.09
2022-09-01T05:18:48.882Z,102220.72
2022-09-01T05:21:22.247Z,102226.81
2022-09-01T05:23:51.670Z,102225.94
2022-09-01T05:26:24.301Z,102233.00
2022-09-01T05:28:56.780Z,102222.50
2022-09-01T05:31:28.067Z,102223.50
2022-09-01T05:33:58.116Z,102227.88
2022-09-01T05:36:26.776Z,102223.56
2022-09-01T05:38:57.040Z,102233.19
2022-09-01T05:41:24.712Z,102230.63
2022-09-01T05:43:57.806Z,102235.06
2022-09-01T05:46:28.349Z,102235.19
2022-09-01T05:48:57.496Z,102237.91
2022-09-01T05:51:44.045Z,102236.25
2022-09-01T05:54:12.081Z,102240.72
2022-09-01T05:56:43.645Z,102243.47
2022-09-01T05:59:29.246Z,102238.38
2022-09-01T06:02:04.111Z,102235.84
2022-09-01T06:04:31.239Z,102236.88
2022-09-01T06:07:09.625Z,102236.16
2022-09-01T06:09:45.478Z,102237.16
2022-09-01T06:12:23.105Z,102240.69
2022-09-01T06:14:53.562Z,102242.34
2022-09-01T06:17:27.374Z,102245.78
2022-09-01T06:19:58.513Z,102240.50
2022-09-01T06:22:28.558Z,102237.91
2022-09-01T06:25:02.241Z,102226.56
2022-09-01T06:27:34.452Z,102234.72
2022-09-01T06:30:01.541Z,102233.09
2022-09-01T06:32:33.679Z,102241.97
2022-09-01T06:35:00.802Z,102243.88
2022-09-01T06:37:28.864Z,102235.28
2022-09-01T06:40:02.408Z,102231.88
2022-09-01T06:42:31.427Z,102241.59
2022-09-01T06:45:02.017Z,102239.97
2022-09-01T06:47:29.005Z,102236.56
2022-09-01T06:49:59.365Z,102248.94
2022-09-01T06:52:27.327Z,102246.41
2022-09-01T06:54:55.889Z,102256.16
2022-09-01T07:00:20.188Z,102245.78
2022-09-01T07:02:54.872Z,102261.75
2022-09-01T07:06:03.205Z,102247.78
2022-09-01T07:12:08.907Z,102235.69
2022-09-01T07:17:42.370Z,102256.91
2022-09-01T07:20:27.258Z,102254.34
2022-09-01T07:23:06.471Z,102250.84
2022-09-01T07:26:01.315Z,102246.59
2022-09-01T07:28:36.588Z,102254.50
2022-09-01T07:34:38.717Z,102252.00
2022-09-01T07:39:51.532Z,102247.66
2022-09-01T07:45:58.078Z,102245.94
2022-09-01T07:48:36.602Z,102256.53
2022-09-01T07:51:36.763Z,102259.16
2022-09-01T07:54:05.949Z,102263.56
2022-09-01T07:56:39.510Z,102259.16
2022-09-01T07:59:10.611Z,102272.34
2022-09-01T08:01:50.680Z,102270.59
2022-09-01T08:04:22.808Z,102266.19
2022-09-01T08:06:50.142Z,102255.66
2022-09-01T08:09:33.040Z,102258.28
2022-09-01T08:12:07.749Z,102260.91
2022-09-01T08:14:39.437Z,102254.75
2022-09-01T08:19:56.404Z,102260.91
2022-09-01T08:22:43.314Z,102257.38
2022-09-01T08:25:29.788Z,102258.25
2022-09-01T08:28:00.373Z,102256.47
2022-09-01T08:30:28.339Z,102256.50
2022-09-01T08:32:55.788Z,102255.59
2022-09-01T08:35:23.731Z,102256.47
2022-09-01T08:37:52.179Z,102258.19
2022-09-01T08:40:23.549Z,102258.16
2022-09-01T08:43:49.055Z,102257.25
2022-09-01T08:46:28.025Z,102251.97
2022-09-01T08:52:33.207Z,102255.44
2022-09-01T08:55:15.065Z,102246.63
2022-09-01T08:57:46.052Z,102244.84
2022-09-01T09:00:24.116Z,102244.81
2022-09-01T09:03:23.306Z,102242.09
2022-09-01T09:06:17.930Z,102243.84
2022-09-01T09:09:05.583Z,102241.13
2022-09-01T09:12:17.375Z,102240.16
2022-09-01T09:14:56.237Z,102240.13
2022-09-01T09:17:30.048Z,102247.13
2022-09-01T09:19:56.978Z,102238.28
2022-09-01T09:22:23.901Z,102234.66
2022-09-01T09:25:04.952Z,102229.25
2022-09-01T09:27:36.695Z,102230.91
2022-09-01T09:30:26.483Z,102219.34
2022-09-01T09:35:54.920Z,102223.59
2022-09-01T09:38:29.227Z,102226.25
2022-09-01T09:41:18.520Z,102224.56
2022-09-01T09:44:01.141Z,102230.81
2022-09-01T09:46:43.651Z,102229.03
2022-09-01T09:49:36.533Z,102227.25
2022-09-01T09:52:10.325Z,102234.31
2022-09-01T09:55:00.441Z,102230.81
2022-09-01T09:57:28.794Z,102240.56
2022-09-01T10:00:15.534Z,102238.84
2022-09-01T10:02:45.566Z,102229.16
2022-09-01T10:05:27.822Z,102228.31
2022-09-01T10:07:56.087Z,102238.00
2022-09-01T10:10:57.764Z,102236.25
2022-09-01T10:13:32.686Z,102239.81
2022-09-01T10:16:10.566Z,102237.16
2022-09-01T10:18:42.117Z,102239.72
2022-09-01T10:21:15.820Z,102236.16
2022-09-01T10:23:43.497Z,102240.50
2022-09-01T10:26:24.335Z,102236.97
2022-09-01T10:29:15.903Z,102236.06
2022-09-01T10:31:43.266Z,102230.69
2022-09-01T10:34:19.375Z,102235.06
2022-09-01T10:36:54.902Z,102237.72
2022-09-01T10:39:28.369Z,102225.34
2022-09-01T10:42:07.244Z,102234.16
2022-09-01T10:44:57.614Z,102230.63
2022-09-01T10:47:33.669Z,102228.84
2022-09-01T10:50:09.967Z,102223.44
2022-09-01T10:52:43.775Z,102216.22
2022-09-01T10:55:34.463Z,102225.69
2022-09-01T11:01:48.339Z,102220.88
2022-09-01T11:04:30.185Z,102225.00
2022-09-01T11:07:13.852Z,102217.84
2022-09-01T11:09:44.172Z,102215.13
2022-09-01T11:12:40.032Z,102212.50
2022-09-01T11:15:14.574Z,102213.28
2022-09-01T11:17:53.594Z,102205.22
2022-09-01T11:20:34.394Z,102205.97
2022-09-01T11:23:27.648Z,102218.22
2022-09-01T11:26:32.613Z,102201.41
2022-09-01T11:28:59.551Z,102209.53
2022-09-01T11:31:33.321Z,102213.31
2022-09-01T11:34:11.458Z,102213.47
2022-09-01T11:36:48.294Z,102216.09
2022-09-01T11:39:18.187Z,102209.84
2022-09-01T11:42:19.671Z,102209.84
2022-09-01T11:44:57.933Z,102215.28
2022-09-01T11:47:36.017Z,102208.44
2022-09-01T11:50:19.066Z,102207.78
2022-09-01T11:53:04.102Z,102207.78
2022-09-01T11:55:45.613Z,102214.75
2022-09-01T11:58:28.865Z,102210.34
2022-09-01T12:01:00.491Z,102209.53
2022-09-01T12:03:30.126Z,102206.13
2022-09-01T12:06:01.220Z,102201.78
2022-09-01T12:08:33.932Z,102197.44
2022-09-01T12:11:31.355Z,102201.94
2022-09-01T12:14:10.487Z,102195.72
2022-09-01T12:16:42.315Z,102197.31
2022-09-01T12:19:25.201Z,102194.38
2022-09-01T12:22:04.813Z,102184.53
2022-09-01T12:24:37.007Z,102182.44
2022-09-01T12:27:04.954Z,102173.25
2022-09-01T12:29:33.158Z,102167.56
2022-09-01T12:32:01.562Z,102156.53
2022-09-01T12:35:05.638Z,102169.34
2022-09-01T12:37:36.766Z,102151.66
2022-09-01T12:40:04.354Z,102163.88
2022-09-01T12:42:38.985Z,102165.59
2022-09-01T12:45:10.460Z,102156.78
2022-09-01T12:47:37.327Z,102165.69
2022-09-01T12:50:16.594Z,102160.53
2022-09-01T12:52:53.265Z,102158.00
2022-09-01T12:55:49.221Z,102164.09
2022-09-01T12:58:25.674Z,102162.31
2022-09-01T13:01:16.011Z,102156.06
2022-09-01T13:04:10.616Z,102162.19
2022-09-01T13:06:38.147Z,102146.25
2022-09-01T13:09:05.261Z,102157.50
2022-09-01T13:12:06.010Z,102157.47
2022-09-01T13:14:19.114Z,102154.81
2022-09-01T13:16:46.687Z,102154.84
2022-09-01T13:19:17.968Z,102163.88
2022-09-01T13:21:48.962Z,102154.22
2022-09-01T13:24:15.863Z,102161.38
2022-09-01T13:27:20.281Z,102167.63
2022-09-01T13:29:30.072Z,102165.03
2022-09-01T13:34:44.336Z,102166.13
2022-09-01T13:37:11.254Z,102161.84
2022-09-01T13:39:38.157Z,102170.81
2022-09-01T13:42:05.235Z,102165.78
2022-09-01T13:44:32.146Z,102171.28
2022-09-01T13:46:59.534Z,102167.94
2022-09-01T13:49:44.463Z,102170.78
2022-09-01T13:52:13.491Z,102178.03
2022-09-01T13:54:40.600Z,102169.31
2022-09-01T13:57:07.800Z,102167.47
2022-09-01T13:59:34.753Z,102159.38
2022-09-01T14:02:01.777Z,102155.66
2022-09-01T14:04:29.120Z,102160.81
2022-09-01T14:06:56.492Z,102143.88
2022-09-01T14:09:23.448Z,102152.56
2022-09-01T14:11:54.508Z,102145.28
2022-09-01T14:14:22.059Z,102148.59
2022-09-01T14:16:49.338Z,102149.41
2022-09-01T14:19:16.468Z,102144.94
2022-09-01T14:21:44.398Z,102147.72
2022-09-01T14:24:13.028Z,102149.53
2022-09-01T14:26:42.290Z,102138.19
2022-09-01T14:29:09.470Z,102145.16
2022-09-01T14:31:37.774Z,102147.00
2022-09-01T14:34:06.703Z,102140.78
2022-09-01T14:36:33.767Z,102146.06
2022-09-01T14:39:00.668Z,102138.91
2022-09-01T14:41:27.588Z,102136.09
2022-09-01T14:44:02.831Z,102133.38
2022-09-01T14:46:33.836Z,102138.69
2022-09-01T14:49:02.153Z,102141.25
2022-09-01T14:54:18.497Z,102127.81
2022-09-01T14:57:28.672Z,102131.28
2022-09-01T14:59:33.376Z,102123.16
2022-09-01T15:02:00.408Z,102126.75
2022-09-01T15:04:27.943Z,102115.44
2022-09-01T15:06:55.605Z,102121.59
2022-09-01T15:09:22.983Z,102117.00
2022-09-01T15:11:49.977Z,102119.63
2022-09-01T15:14:16.909Z,102119.56
2022-09-01T15:16:43.966Z,102115.19
2022-09-01T15:19:13.269Z,102112.63
2022-09-01T15:21:43.489Z,102111.84
2022-09-01T15:24:11.175Z,102105.81
2022-09-01T15:26:40.870Z,102106.91
2022-09-01T15:29:13.200Z,102106.16
2022-09-01T15:31:40.442Z,102109.75
2022-09-01T15:34:07.550Z,102103.75
2022-09-01T15:36:40.053Z,102104.75
2022-09-01T15:39:08.300Z,102110.13
2022-09-01T15:41:36.268Z,102104.13
2022-09-01T15:44:06.968Z,102109.50
2022-09-01T15:46:36.263Z,102114.75
2022-09-01T15:49:07.452Z,102105.06
2022-09-01T15:51:43.268Z,102101.69
2022-09-01T15:54:17.443Z,102095.63
2022-09-01T15:56:46.669Z,102097.44
2022-09-01T15:59:14.518Z,102098.38
2022-09-01T16:01:45.341Z,102101.88
2022-09-01T16:04:20.008Z,102100.19
2022-09-01T16:06:49.452Z,102092.44
2022-09-01T16:09:18.399Z,102103.16
2022-09-01T16:11:45.635Z,102095.34
2022-09-01T16:14:12.851Z,102086.63
2022-09-01T16:17:07.560Z,102109.59
2022-09-01T16:20:18.723Z,102111.47
2022-09-01T16:22:56.349Z,102112.41
2022-09-01T16:25:31.510Z,102116.78
2022-09-01T16:28:10.866Z,102107.94
2022-09-01T16:30:38.892Z,102109.72
2022-09-01T16:33:19.776Z,102106.09
2022-09-01T16:36:14.488Z,102109.66
2022-09-01T16:39:03.736Z,102107.06
2022-09-01T16:42:03.273Z,102101.81
2022-09-01T16:45:05.533Z,102101.88
2022-09-01T16:48:06.708Z,102103.63
2022-09-01T16:50:39.595Z,102095.63
2022-09-01T16:53:30.991Z,102112.31
2022-09-01T16:56:07.913Z,102093.75
2022-09-01T16:58:46.411Z,102107.66
2022-09-01T17:01:41.645Z,102096.81
2022-09-01T17:04:50.298Z,102100.09
2022-09-01T17:07:38.850Z,102103.59
2022-09-01T17:10:20.651Z,102103.66
2022-09-01T17:12:56.209Z,102102.00
2022-09-01T17:15:41.119Z,102110.09
2022-09-01T17:18:41.078Z,102111.16
2022-09-01T17:21:21.530Z,102106.94
2022-09-01T17:24:31.989Z,102113.34
2022-09-01T17:27:07.826Z,102113.63
2022-09-01T17:29:44.896Z,102109.38
2022-09-01T17:32:52.172Z,102122.75
2022-09-01T17:35:53.085Z,102113.19
2022-09-01T17:38:54.123Z,102102.13
2022-09-01T17:41:47.968Z,102114.59
2022-09-01T17:44:56.169Z,102122.66
2022-09-01T17:48:11.724Z,102115.72
2022-09-01T17:51:02.341Z,102112.25
2022-09-01T17:54:16.934Z,102121.94
2022-09-01T17:57:09.305Z,102115.00
2022-09-01T17:59:48.460Z,102130.00
2022-09-01T18:02:52.223Z,102128.38
2022-09-01T18:05:24.683Z,102131.97
2022-09-01T18:08:36.476Z,102128.56
2022-09-01T18:11:13.868Z,102132.13
2022-09-01T18:14:09.255Z,102122.44
2022-09-01T18:16:58.796Z,102133.00
2022-09-01T18:19:35.980Z,102133.03
2022-09-01T18:22:09.496Z,102132.19
2022-09-01T18:24:54.439Z,102137.47
2022-09-01T18:27:24.328Z,102119.06
2022-09-01T18:29:53.183Z,102141.88
2022-09-01T18:32:46.175Z,102124.34
2022-09-01T18:35:13.364Z,102147.22
2022-09-01T18:38:25.694Z,102150.78
2022-09-01T18:41:39.388Z,102153.50
2022-09-01T18:44:36.849Z,102154.41
2022-09-01T18:47:10.510Z,102158.84
2022-09-01T18:49:55.089Z,102156.25
2022-09-01T18:52:47.688Z,102160.66
2022-09-01T18:55:38.931Z,102153.66
2022-09-01T18:58:26.444Z,102151.91
2022-09-01T19:01:05.898Z,102155.41
2022-09-01T19:03:49.007Z,102158.06
2022-09-01T19:06:34.747Z,102165.09
2022-09-01T19:09:22.687Z,102160.72
2022-09-01T19:11:49.476Z,102166.03
2022-09-01T19:14:31.540Z,102158.13
2022-09-01T19:17:32.740Z,102160.78
2022-09-01T19:20:04.983Z,102167.81
2022-09-01T19:22:56.329Z,102165.19
2022-09-01T19:25:33.895Z,102176.59
2022-09-01T19:28:44.333Z,102170.47
2022-09-01T19:31:32.456Z,102174.88
2022-09-01T19:34:19.447Z,102170.50
2022-09-01T19:36:59.707Z,102173.13
2022-09-01T19:39:40.558Z,102170.47
2022-09-01T19:42:53.229Z,102169.63
2022-09-01T19:45:38.324Z,102164.34
2022-09-01T19:48:18.040Z,102168.72
2022-09-01T19:50:54.055Z,102174.00
2022-09-01T19:54:10.674Z,102168.72
2022-09-01T19:56:57.650Z,102170.50
2022-09-01T19:59:33.966Z,102181.03
2022-09-01T20:02:10.469Z,102176.66
2022-09-01T20:04:47.854Z,102181.91
2022-09-01T20:07:39.764Z,102174.84
2022-09-01T20:10:37.037Z,102173.13
2022-09-01T20:13:51.185Z,102169.63
2022-09-01T20:16:33.146Z,102171.34
2022-09-01T20:19:11.436Z,102170.47
2022-09-01T20:21:45.931Z,102173.09
2022-09-01T20:24:38.228Z,102169.56
2022-09-01T20:27:48.048Z,102161.69
2022-09-01T20:30:24.242Z,102160.78
2022-09-01T20:33:03.455Z,102166.06
2022-09-01T20:35:39.930Z,102166.03
2022-09-01T20:38:46.176Z,102169.53
2022-09-01T20:41:42.309Z,102166.88
2022-09-01T20:44:24.736Z,102163.34
2022-09-01T20:46:52.686Z,102170.34
2022-09-01T20:49:19.810Z,102171.22
2022-09-01T20:52:10.219Z,102177.34
2022-09-01T20:55:13.047Z,102177.28
2022-09-01T20:58:06.641Z,102185.13
2022-09-01T21:00:47.043Z,102178.88
2022-09-01T21:03:40.013Z,102187.50
2022-09-01T21:06:33.176Z,102179.50
2022-09-01T21:09:33.837Z,102175.94
2022-09-01T21:12:10.289Z,102180.31
2022-09-01T21:14:49.203Z,102187.28
2022-09-01T21:18:08.031Z,102179.38
2022-09-01T21:21:11.072Z,102171.44
2022-09-01T21:23:37.979Z,102181.06
2022-09-01T21:26:05.602Z,102178.41
2022-09-01T21:28:34.090Z,102171.41
2022-09-01T21:31:02.144Z,102186.28
2022-09-01T21:33:32.104Z,102183.63
2022-09-01T21:36:00.540Z,102175.72
2022-09-01T21:38:29.426Z,102176.59
2022-09-01T21:40:59.180Z,102172.22
2022-09-01T21:43:32.535Z,102173.91
2022-09-01T21:46:00.914Z,102184.44
2022-09-01T21:48:28.531Z,102178.28
2022-09-01T21:50:55.426Z,102179.16
2022-09-01T21:53:22.412Z,102181.75
2022-09-01T21:55:49.756Z,102177.34
2022-09-01T21:58:16.691Z,102182.53
2022-09-01T22:00:44.511Z,102172.91
2022-09-01T22:03:12.482Z,102170.22
2022-09-01T22:05:42.259Z,102186.81
2022-09-01T22:08:12.202Z,102178.03
2022-09-01T22:10:49.345Z,102185.88
2022-09-01T22:13:18.182Z,102181.47
2022-09-01T22:15:53.020Z,102186.63
2022-09-01T22:18:21.630Z,102184.88
2022-09-01T22:20:48.840Z,102183.97
2022-09-01T22:23:16.860Z,102183.91
2022-09-01T22:25:46.569Z,102184.78
2022-09-01T22:28:14.048Z,102179.50
2022-09-01T22:30:49.323Z,102183.81
2022-09-01T22:33:16.992Z,102182.03
2022-09-01T22:35:47.468Z,102181.09
2022-09-01T22:38:15.771Z,102190.69
2022-09-01T22:40:51.457Z,102185.38
2022-09-01T22:43:19.252Z,102186.22
2022-09-01T22:45:48.210Z,102187.03
2022-09-01T22:48:18.236Z,102184.25
2022-09-01T22:50:46.668Z,102183.44
2022-09-01T22:53:15.333Z,102177.22
2022-09-01T22:55:45.775Z,102182.47
2022-09-01T22:58:13.648Z,102186.78
2022-09-01T23:00:47.794Z,102180.63
2022-09-01T23:03:15.445Z,102184.97
2022-09-01T23:05:44.000Z,102182.28
2022-09-01T23:08:11.557Z,102189.28
2022-09-01T23:10:38.490Z,102183.97
2022-09-01T23:13:05.684Z,102179.56
2022-09-01T23:15:33.470Z,102180.38
2022-09-01T23:18:00.498Z,102184.69
2022-09-01T23:20:27.683Z,102181.16
2022-09-01T23:22:54.655Z,102168.88
2022-09-01T23:25:21.607Z,102170.59
2022-09-01T23:27:48.625Z,102174.03
2022-09-01T23:30:16.188Z,102178.38
2022-09-01T23:32:43.639Z,102173.09
2022-09-01T23:35:10.918Z,102173.03
2022-09-01T23:37:37.917Z,102177.38
2022-09-01T23:40:07.871Z,102174.69
2022-09-01T23:42:35.088Z,102176.41
2022-09-01T23:45:02.036Z,102177.25
2022-09-01T23:47:31.012Z,102175.47
2022-09-01T23:49:57.975Z,102176.25
2022-09-01T23:52:25.284Z,102163.03
2022-09-01T23:54:52.188Z,102174.47
2022-09-01T23:57:19.138Z,102174.38
2022-09-01T23:59:46.160Z,102162.97
